Time;durP1;ratioP1;P1;durP2;ratioP2;P2;SDS_P1;SDS_P2;PMS_P1;PMS_P2;Temp;Humidity;BMP_temperature;BMP_pressure;BME280_temperature;BME280_humidity;BME280_pressure;Samples;Min_cycle;Max_cycle;Signal;HPM_P1;HPM_P2
2023/06/10 00:00:48;;;;;;;7.37;4.90;;;;;;;21.63;52.35;101296.22;5092913;28;20024;-83
2023/06/10 00:03:14;;;;;;;9.57;5.80;;;;;;;21.56;52.67;101302.78;5093487;28;20089;-83
2023/06/10 00:05:39;;;;;;;9.30;6.15;;;;;;;21.53;52.96;101310.84;5093559;28;20030;-83
2023/06/10 00:08:08;;;;;;;8.83;5.90;;;;;;;21.52;52.21;101309.13;5093588;28;20032;-83
2023/06/10 00:10:38;;;;;;;7.72;5.20;;;;;;;21.52;52.49;101310.00;5092922;28;20040;-83
2023/06/10 00:13:08;;;;;;;8.93;5.45;;;;;;;21.47;52.83;101309.41;5093630;28;20506;-83
2023/06/10 00:15:35;;;;;;;6.18;4.60;;;;;;;21.48;52.42;101308.47;5092966;28;20031;-83
2023/06/10 00:18:01;;;;;;;;;;;;;;;21.41;52.68;101307.94;5093825;28;20099;-83
2023/06/10 00:20:26;;;;;;;;;;;;;;;21.32;53.57;101310.22;5094064;28;19936;-83
2023/06/10 00:22:52;;;;;;;8.87;5.93;;;;;;;21.32;53.35;101312.88;5088941;22;19920;-83
2023/06/10 00:25:17;;;;;;;11.75;7.25;;;;;;;21.20;53.76;101309.94;5072954;28;20029;-83
2023/06/10 00:27:43;;;;;;;8.27;5.80;;;;;;;21.20;53.55;101306.44;5072616;28;20116;-83
2023/06/10 00:30:09;;;;;;;12.07;6.90;;;;;;;21.12;53.71;101306.84;5072499;28;20052;-83
2023/06/10 00:32:35;;;;;;;10.05;6.07;;;;;;;21.07;53.84;101311.53;5072792;28;20434;-83
2023/06/10 00:35:00;;;;;;;;;;;;;;;21.04;54.10;101315.19;5073372;28;20464;-83
2023/06/10 00:37:26;;;;;;;8.10;5.53;;;;;;;21.02;53.31;101314.41;5072396;28;19913;-83
2023/06/10 00:39:51;;;;;;;6.13;4.83;;;;;;;20.99;53.18;101311.91;5072732;28;20375;-83
2023/06/10 00:42:16;;;;;;;6.00;4.77;;;;;;;21.00;53.99;101318.91;5072748;28;20013;-83
2023/06/10 00:44:42;;;;;;;6.20;4.40;;;;;;;20.94;54.64;101309.53;5071841;28;20024;-83
2023/06/10 00:47:07;;;;;;;6.13;4.63;;;;;;;20.91;54.01;101316.75;5072727;28;20040;-83
2023/06/10 00:49:34;;;;;;;5.17;4.20;;;;;;;20.87;54.71;101316.06;5072292;28;20028;-83
2023/06/10 00:51:59;;;;;;;7.05;4.65;;;;;;;20.80;54.39;101312.88;5072489;28;20044;-83
2023/06/10 00:54:25;;;;;;;5.77;4.30;;;;;;;20.79;54.04;101319.06;5072515;28;20083;-83
2023/06/10 00:56:52;;;;;;;7.15;4.30;;;;;;;20.76;54.11;101318.38;5071996;28;20036;-83
2023/06/10 00:59:17;;;;;;;6.32;4.60;;;;;;;20.70;55.39;101316.88;5072844;28;20023;-83
2023/06/10 01:01:49;;;;;;;10.17;6.40;;;;;;;20.60;55.12;101313.00;5072390;28;20388;-83
2023/06/10 01:04:19;;;;;;;8.00;5.72;;;;;;;20.58;54.82;101310.41;5071353;28;20028;-83
2023/06/10 01:06:57;;;;;;;9.30;5.88;;;;;;;20.47;56.14;101321.53;5072167;28;20025;-83
2023/06/10 01:09:31;;;;;;;9.43;6.10;;;;;;;20.46;55.89;101318.94;5072613;28;20021;-83
2023/06/10 01:12:23;;;;;;;9.65;5.43;;;;;;;20.43;55.54;101319.97;5071703;28;20066;-83
2023/06/10 01:14:48;;;;;;;7.80;5.35;;;;;;;20.39;55.40;101314.91;5052510;28;20499;-83
2023/06/10 01:17:16;;;;;;;5.17;4.33;;;;;;;20.36;55.23;101322.03;5072733;28;20028;-83
2023/06/10 01:19:43;;;;;;;7.20;4.43;;;;;;;20.30;56.71;101322.34;5071412;28;20103;-83
2023/06/10 01:22:10;;;;;;;8.30;5.68;;;;;;;20.25;55.90;101329.59;5072324;28;20519;-83
2023/06/10 01:24:36;;;;;;;8.35;5.68;;;;;;;20.19;55.81;101328.13;5072238;28;20060;-84
2023/06/10 01:27:10;;;;;;;7.75;5.10;;;;;;;20.17;55.93;101329.13;5071787;28;20025;-83
2023/06/10 01:30:03;;;;;;;8.20;5.30;;;;;;;20.13;56.29;101330.19;5072104;28;20070;-83
2023/06/10 01:32:40;;;;;;;8.10;5.55;;;;;;;20.09;55.96;101329.50;5066152;28;20120;-83
2023/06/10 01:35:07;;;;;;;10.43;6.47;;;;;;;20.00;56.63;101332.56;5072385;28;20480;-83
2023/06/10 01:37:38;;;;;;;6.35;4.88;;;;;;;20.00;56.67;101325.50;5071888;28;20032;-83
2023/06/10 01:40:05;;;;;;;6.63;4.72;;;;;;;19.98;56.16;101329.16;5071329;28;20039;-83
2023/06/10 01:42:32;;;;;;;7.65;5.25;;;;;;;19.88;56.64;101319.06;5071994;28;20047;-83
2023/06/10 01:44:58;;;;;;;9.68;6.00;;;;;;;19.86;57.52;101328.81;5071906;28;20024;-83
2023/06/10 01:47:23;;;;;;;9.68;6.10;;;;;;;19.80;57.50;101323.81;5071388;28;20035;-83
2023/06/10 01:49:48;;;;;;;12.20;7.57;;;;;;;19.72;58.38;101320.66;5072027;28;20374;-83
2023/06/10 01:52:14;;;;;;;10.47;6.90;;;;;;;19.69;58.27;101329.56;5072230;28;20035;-83
2023/06/10 01:54:39;;;;;;;8.60;5.90;;;;;;;19.65;58.05;101329.78;5070981;28;20024;-83
2023/06/10 01:57:06;;;;;;;9.00;5.77;;;;;;;19.59;58.53;101326.47;5072077;28;20115;-83
2023/06/10 01:59:31;;;;;;;;;;;;;;;19.56;58.60;101328.41;5072153;28;20029;-83
2023/06/10 02:01:56;;;;;;;13.70;7.87;;;;;;;19.47;59.16;101324.44;5071910;28;20422;-83
2023/06/10 02:04:21;;;;;;;13.27;7.37;;;;;;;19.40;60.24;101330.88;5071643;28;20116;-83
2023/06/10 02:06:48;;;;;;;12.67;8.00;;;;;;;19.35;60.80;101327.59;5071794;28;20039;-83
2023/06/10 02:09:13;;;;;;;13.05;8.38;;;;;;;19.26;60.99;101332.34;5071380;28;20532;-83
2023/06/10 02:11:39;;;;;;;14.30;8.30;;;;;;;19.26;60.53;101339.38;5071854;28;20108;-83
2023/06/10 02:14:04;;;;;;;14.57;8.67;;;;;;;19.22;60.66;101335.16;5071453;28;20376;-82
2023/06/10 02:16:32;;;;;;;11.80;8.00;;;;;;;19.19;61.14;101335.31;5074785;28;20085;-83
2023/06/10 02:18:57;;;;;;;13.82;8.38;;;;;;;19.14;61.89;101333.75;5075908;28;20017;-82
2023/06/10 02:21:23;;;;;;;14.50;8.23;;;;;;;19.16;60.89;101332.81;5074811;28;20039;-82
2023/06/10 02:23:48;;;;;;;13.13;8.03;;;;;;;19.07;62.34;101334.94;5074765;28;20401;-83
2023/06/10 02:26:13;;;;;;;9.53;6.50;;;;;;;19.09;61.05;101343.59;5075356;28;20157;-83
2023/06/10 02:28:42;;;;;;;8.53;5.83;;;;;;;19.07;62.32;101337.56;5074414;28;20035;-83
2023/06/10 02:31:08;;;;;;;10.77;6.70;;;;;;;19.05;61.54;101343.78;5075277;28;20074;-83
2023/06/10 02:33:33;;;;;;;10.93;7.00;;;;;;;19.03;61.75;101343.03;5075399;28;20480;-83
2023/06/10 02:35:59;;;;;;;12.87;7.07;;;;;;;18.97;61.46;101334.47;5074646;28;20020;-82
2023/06/10 02:38:24;;;;;;;13.00;7.43;;;;;;;18.93;62.85;101330.25;5075397;28;20105;-82
2023/06/10 02:40:49;;;;;;;11.50;7.50;;;;;;;18.93;61.88;101340.78;5074995;28;20024;-83
2023/06/10 02:43:15;;;;;;;9.93;6.30;;;;;;;18.93;61.77;101342.53;5074267;28;20500;-83
2023/06/10 02:45:40;;;;;;;11.87;7.30;;;;;;;18.92;62.05;101346.91;5075092;28;20043;-83
2023/06/10 02:48:05;;;;;;;11.60;7.40;;;;;;;18.86;63.21;101341.94;5075409;28;20311;-82
2023/06/10 02:50:31;;;;;;;14.57;8.00;;;;;;;18.80;64.02;101337.78;5073816;28;20552;-83
2023/06/10 02:52:56;;;;;;;9.60;6.27;;;;;;;18.80;63.15;101339.56;5075105;28;20016;-83
2023/06/10 02:55:21;;;;;;;11.53;8.03;;;;;;;18.75;64.09;101339.72;5074831;28;20070;-83
2023/06/10 02:57:46;;;;;;;12.03;6.83;;;;;;;18.72;63.27;101339.00;5073299;28;20038;-82
2023/06/10 03:00:21;;;;;;;11.47;7.60;;;;;;;18.64;64.72;101340.19;5074382;28;20093;-82
2023/06/10 03:02:46;;;;;;;9.63;6.53;;;;;;;18.67;63.54;101347.09;5074643;28;20044;-83
2023/06/10 03:05:12;;;;;;;9.23;6.10;;;;;;;18.65;63.25;101341.91;5074106;28;20048;-83
2023/06/10 03:07:38;;;;;;;9.80;6.53;;;;;;;18.61;64.57;101342.94;5074485;28;20025;-82
2023/06/10 03:10:04;;;;;;;7.53;5.33;;;;;;;18.61;63.54;101342.94;5074616;28;20074;-82
2023/06/10 03:12:29;;;;;;;8.93;5.88;;;;;;;18.58;65.04;101348.31;5073162;28;20845;-82
2023/06/10 03:14:54;;;;;;;10.43;6.50;;;;;;;18.56;64.75;101354.56;5074702;28;20029;-82
2023/06/10 03:17:20;;;;;;;7.17;5.27;;;;;;;18.53;64.26;101348.50;5073281;28;20028;-83
2023/06/10 03:19:45;;;;;;;6.80;4.90;;;;;;;18.49;64.72;101346.06;5073171;28;20039;-82
2023/06/10 03:22:13;;;;;;;6.60;4.53;;;;;;;18.50;62.98;101345.16;5074008;28;20544;-82
2023/06/10 03:24:39;;;;;;;9.85;5.88;;;;;;;18.43;66.33;101346.34;5073658;28;20063;-82
2023/06/10 03:27:07;;;;;;;14.48;8.55;;;;;;;18.34;66.51;101343.16;5073109;28;20025;-82
2023/06/10 03:29:32;;;;;;;16.55;9.20;;;;;;;18.33;66.08;101351.09;5074188;28;20153;-82
2023/06/10 03:31:58;;;;;;;14.13;8.13;;;;;;;18.32;65.36;101350.25;5073714;28;20528;-83
2023/06/10 03:34:23;;;;;;;10.83;6.93;;;;;;;18.30;66.52;101357.34;5074061;28;20032;-83
2023/06/10 03:36:49;;;;;;;9.30;6.30;;;;;;;18.30;65.84;101364.34;5073845;28;20569;-82
2023/06/10 03:39:14;;;;;;;8.40;5.30;;;;;;;18.27;64.87;101359.22;5073267;28;20051;-82
2023/06/10 03:41:39;;;;;;;10.97;7.37;;;;;;;18.21;67.32;101366.44;5073653;28;20033;-82
2023/06/10 03:44:04;;;;;;;8.93;6.20;;;;;;;18.23;65.76;101368.13;5073653;28;20025;-82
2023/06/10 03:46:29;;;;;;;11.73;7.10;;;;;;;18.20;67.46;101374.38;5072690;28;20020;-82
2023/06/10 03:48:55;;;;;;;13.90;8.50;;;;;;;18.16;67.65;101373.66;5073571;28;20104;-82
2023/06/10 03:51:21;;;;;;;14.10;8.63;;;;;;;18.09;68.02;101373.94;5073903;28;20082;-82
2023/06/10 03:53:46;;;;;;;13.27;7.97;;;;;;;18.10;67.77;101371.25;5072818;28;20054;-82
2023/06/10 03:56:11;;;;;;;13.03;8.13;;;;;;;18.07;68.52;101368.72;5073348;28;20025;-82
2023/06/10 03:58:37;;;;;;;14.90;8.50;;;;;;;18.05;67.77;101373.19;5073199;28;20019;-82
2023/06/10 04:01:02;;;;;;;13.93;8.27;;;;;;;18.03;68.67;101368.00;5073126;28;20034;-82
2023/06/10 04:03:28;;;;;;;16.10;9.90;;;;;;;18.10;67.93;101370.41;5073640;28;20032;-82
2023/06/10 04:05:54;;;;;;;15.30;9.55;;;;;;;17.98;69.12;101375.19;5073039;28;20385;-82
2023/06/10 04:08:20;;;;;;;16.17;10.37;;;;;;;17.98;68.52;101369.06;5072572;28;20021;-82
2023/06/10 04:10:45;;;;;;;15.80;9.65;;;;;;;17.95;69.09;101369.19;5073076;28;20111;-82
2023/06/10 04:13:11;;;;;;;16.73;10.43;;;;;;;17.94;69.28;101373.56;5073476;28;20151;-82
2023/06/10 04:15:36;;;;;;;15.20;9.20;;;;;;;17.91;68.57;101365.78;5072196;28;20028;-82
2023/06/10 04:18:02;;;;;;;13.70;8.37;;;;;;;17.96;68.36;101374.38;5073337;28;20025;-82
2023/06/10 04:20:27;;;;;;;17.05;11.20;;;;;;;17.90;69.26;101380.72;5073276;28;20021;-82
2023/06/10 04:22:52;;;;;;;18.53;11.77;;;;;;;17.90;68.92;101385.97;5071801;28;20095;-82
2023/06/10 04:25:18;;;;;;;12.43;8.27;;;;;;;17.95;68.62;101388.41;5072954;28;20016;-82
2023/06/10 04:27:43;;;;;;;18.07;11.03;;;;;;;17.93;68.20;101377.09;5072266;28;20020;-82
2023/06/10 04:30:09;;;;;;;12.73;8.40;;;;;;;17.98;68.50;101379.59;5072595;28;20025;-82
2023/06/10 04:32:35;;;;;;;15.40;8.98;;;;;;;18.01;68.53;101398.69;5072812;28;20092;-81
2023/06/10 04:35:00;;;;;;;12.07;7.77;;;;;;;18.03;68.56;101390.78;5072221;28;20036;-82
2023/06/10 04:37:25;;;;;;;13.70;8.40;;;;;;;18.04;68.05;101384.63;5072772;28;20385;-82
2023/06/10 04:39:51;;;;;;;18.50;10.60;;;;;;;18.06;68.72;101394.16;5072663;28;20385;-82
2023/06/10 04:42:16;;;;;;;18.53;11.67;;;;;;;18.04;68.65;101389.88;5072200;28;20073;-82
2023/06/10 04:44:41;;;;;;;17.00;11.80;;;;;;;18.03;68.84;101394.25;5072803;28;20381;-82
2023/06/10 04:47:07;;;;;;;19.13;11.03;;;;;;;18.06;68.74;101398.56;5072614;28;20509;-82
2023/06/10 04:49:33;;;;;;;18.08;11.57;;;;;;;18.06;68.48;101393.31;5071644;28;20446;-82
2023/06/10 04:51:59;;;;;;;17.73;10.17;;;;;;;18.08;68.28;101398.47;5072637;28;20066;-82
2023/06/10 04:54:25;;;;;;;17.73;10.77;;;;;;;18.11;68.22;101399.22;5072831;28;20332;-81
2023/06/10 04:56:50;;;;;;;18.80;12.07;;;;;;;18.10;68.07;101394.88;5072066;28;20028;-82
2023/06/10 04:59:15;;;;;;;17.70;10.90;;;;;;;18.16;67.98;101393.78;5073074;28;20051;-82
2023/06/10 05:01:40;;;;;;;17.27;10.27;;;;;;;18.23;67.93;101400.53;5072354;28;20467;-82
2023/06/10 05:04:06;;;;;;;15.03;9.43;;;;;;;18.28;67.49;101395.94;5071704;28;20020;-82
2023/06/10 05:06:31;;;;;;;16.73;10.73;;;;;;;18.30;67.45;101399.38;5072183;28;20487;-82
2023/06/10 05:08:56;;;;;;;18.10;10.40;;;;;;;18.34;67.20;101397.47;5072475;28;20021;-82
2023/06/10 05:11:22;;;;;;;14.53;9.10;;;;;;;18.41;67.40;101398.09;5071837;28;20021;-82
2023/06/10 05:13:47;;;;;;;16.33;9.70;;;;;;;18.45;67.11;101397.91;5072405;28;20052;-83
2023/06/10 05:16:21;;;;;;;17.57;10.93;;;;;;;18.44;66.82;101393.56;5072368;28;20452;-82
2023/06/10 05:18:47;;;;;;;16.90;10.45;;;;;;;18.51;66.14;101397.69;5070994;28;20028;-82
2023/06/10 05:21:12;;;;;;;16.90;9.60;;;;;;;18.58;66.77;101398.25;5072440;28;20028;-82
2023/06/10 05:23:37;;;;;;;16.30;10.10;;;;;;;18.59;65.86;101402.59;5072045;28;20066;-82
2023/06/10 05:26:03;;;;;;;19.30;11.13;;;;;;;18.62;66.65;101396.41;5071510;28;20048;-83
2023/06/10 05:28:28;;;;;;;18.40;11.10;;;;;;;18.67;66.14;101405.81;5072055;28;20029;-85
2023/06/10 05:30:53;;;;;;;18.53;10.83;;;;;;;18.67;65.99;101394.41;5071543;28;20036;-83
2023/06/10 05:33:19;;;;;;;18.63;10.57;;;;;;;18.73;65.74;101399.44;5071908;28;20024;-82
2023/06/10 05:35:44;;;;;;;17.07;10.07;;;;;;;18.80;65.52;101400.06;5071851;28;20131;-82
2023/06/10 05:38:09;;;;;;;18.27;11.30;;;;;;;18.83;65.86;101403.41;5071828;28;20048;-84
2023/06/10 05:40:35;;;;;;;18.23;10.53;;;;;;;18.90;65.21;101401.38;5072065;28;20021;-84
2023/06/10 05:43:00;;;;;;;17.30;10.60;;;;;;;18.92;65.74;101402.16;5071746;28;20029;-84
2023/06/10 05:45:27;;;;;;;16.80;9.93;;;;;;;18.99;65.34;101405.41;5071624;28;20025;-83
2023/06/10 05:47:52;;;;;;;17.65;10.40;;;;;;;19.04;65.11;101398.19;5071836;28;20039;-83
2023/06/10 05:50:24;;;;;;;18.77;11.00;;;;;;;19.09;64.83;101404.09;5073666;28;20054;-83
2023/06/10 05:52:50;;;;;;;18.05;10.30;;;;;;;19.13;64.67;101402.22;5074932;28;20036;-81
2023/06/10 05:55:15;;;;;;;18.33;11.00;;;;;;;19.19;64.17;101401.94;5075890;28;20415;-82
2023/06/10 05:57:41;;;;;;;17.67;10.63;;;;;;;19.25;64.20;101414.81;5075557;28;20028;-83
2023/06/10 06:00:07;;;;;;;17.10;9.88;;;;;;;19.37;64.04;101409.94;5074815;28;20036;-83
2023/06/10 06:02:35;;;;;;;19.92;10.82;;;;;;;19.63;63.07;101415.84;5075595;28;20024;-82
2023/06/10 06:05:01;;;;;;;15.85;9.32;;;;;;;20.11;63.28;101409.31;5075407;28;20032;-83
2023/06/10 06:07:26;;;;;;;17.23;10.30;;;;;;;20.76;59.06;101415.97;5074953;28;20017;-83
2023/06/10 06:09:51;;;;;;;16.73;9.37;;;;;;;21.34;57.54;101416.56;5075135;28;20464;-82
2023/06/10 06:12:17;;;;;;;17.43;9.77;;;;;;;22.46;53.84;101408.88;5075773;28;20386;-82
2023/06/10 06:14:42;;;;;;;16.80;9.37;;;;;;;23.09;52.44;101410.53;5074513;28;20028;-83
2023/06/10 06:17:07;;;;;;;15.60;8.90;;;;;;;23.35;51.89;101404.63;5075781;28;20021;-83
2023/06/10 06:19:33;;;;;;;11.17;6.73;;;;;;;23.30;52.39;101407.56;5075251;28;20029;-83
2023/06/10 06:21:58;;;;;;;15.05;8.15;;;;;;;23.01;52.74;101409.28;5074580;28;20031;-83
2023/06/10 06:24:24;;;;;;;14.70;7.93;;;;;;;22.66;52.67;101400.66;5075308;28;20141;-83
2023/06/10 06:26:49;;;;;;;16.60;9.03;;;;;;;22.39;53.39;101410.16;5075088;28;20043;-82
2023/06/10 06:29:14;;;;;;;16.17;8.57;;;;;;;22.41;53.16;101413.56;5074881;28;20491;-83
2023/06/10 06:31:40;;;;;;;17.40;9.20;;;;;;;22.19;52.76;101418.25;5074578;28;20047;-82
2023/06/10 06:34:05;;;;;;;17.93;9.50;;;;;;;21.97;53.44;101418.56;5075213;28;20044;-83
2023/06/10 06:36:30;;;;;;;16.30;8.90;;;;;;;22.06;53.57;101414.56;5073973;28;20038;-82
2023/06/10 06:38:56;;;;;;;15.80;8.33;;;;;;;22.20;53.23;101411.16;5074937;28;20032;-84
2023/06/10 06:41:21;;;;;;;15.00;8.27;;;;;;;22.32;52.93;101423.69;5074867;28;20024;-84
2023/06/10 06:43:47;;;;;;;15.50;8.25;;;;;;;22.34;52.27;101424.47;5075044;28;20134;-83
2023/06/10 06:46:12;;;;;;;15.07;8.37;;;;;;;22.09;53.12;101416.19;5075196;28;20362;-81
2023/06/10 06:48:37;;;;;;;16.87;9.60;;;;;;;21.99;53.29;101421.13;5073870;28;20052;-83
2023/06/10 06:51:03;;;;;;;16.80;8.60;;;;;;;22.11;53.35;101416.97;5075016;28;20016;-84
2023/06/10 06:53:28;;;;;;;16.37;8.53;;;;;;;22.10;53.78;101420.53;5074609;28;20085;-85
2023/06/10 06:55:53;;;;;;;13.47;7.20;;;;;;;22.30;54.22;101415.00;5074003;28;20024;-83
2023/06/10 06:58:18;;;;;;;14.10;7.93;;;;;;;22.50;52.62;101415.72;5074115;28;20043;-83
2023/06/10 07:00:44;;;;;;;16.87;8.63;;;;;;;22.51;52.28;101420.06;5072325;28;20116;-82
2023/06/10 07:03:11;;;;;;;16.13;8.73;;;;;;;22.47;52.31;101423.81;5072021;28;20065;-83
2023/06/10 07:05:38;;;;;;;15.63;8.52;;;;;;;22.32;52.92;101423.69;5074100;28;20059;-83
2023/06/10 07:08:04;;;;;;;14.13;7.80;;;;;;;22.48;52.90;101428.16;5074493;28;20213;-83
2023/06/10 07:10:35;;;;;;;15.75;8.43;;;;;;;22.65;51.21;101429.84;5073947;28;20024;-84
2023/06/10 07:13:00;;;;;;;13.18;7.50;;;;;;;22.65;51.87;101425.41;5074535;28;20115;-83
2023/06/10 07:15:26;;;;;;;12.93;7.07;;;;;;;22.81;50.81;101430.66;5073198;28;20561;-81
2023/06/10 07:17:51;;;;;;;12.37;7.10;;;;;;;22.98;51.65;101431.50;5073377;28;20020;-82
2023/06/10 07:20:17;;;;;;;12.77;7.43;;;;;;;23.29;51.01;101432.34;5074198;28;20103;-82
2023/06/10 07:22:43;;;;;;;11.43;6.55;;;;;;;23.42;50.77;101428.00;5073980;28;20064;-83
2023/06/10 07:25:17;;;;;;;11.73;6.20;;;;;;;23.65;50.78;101441.66;5073567;28;20052;-83
2023/06/10 07:27:43;;;;;;;9.80;5.65;;;;;;;23.93;50.88;101425.84;5074053;28;20024;-86
2023/06/10 07:30:32;;;;;;;8.83;5.30;;;;;;;24.27;50.12;101442.28;5074255;28;20048;-82
2023/06/10 07:33:07;;;;;;;8.15;4.90;;;;;;;24.47;49.73;101427.75;5073517;28;20032;-82
2023/06/10 07:35:33;;;;;;;7.97;5.05;;;;;;;24.77;49.10;101438.16;5074015;28;20040;-82
2023/06/10 07:37:58;;;;;;;9.30;5.77;;;;;;;24.91;46.18;101442.56;5073238;28;20495;-82
2023/06/10 07:40:24;;;;;;;10.90;6.50;;;;;;;24.76;46.87;101439.16;5074163;28;20036;-82
2023/06/10 07:42:49;;;;;;;8.75;5.68;;;;;;;24.79;46.44;101448.69;5073482;28;20024;-82
2023/06/10 07:45:15;;;;;;;11.37;6.23;;;;;;;24.86;46.25;101444.69;5073301;28;20043;-82
2023/06/10 07:47:40;;;;;;;10.57;6.00;;;;;;;24.92;47.07;101441.63;5073881;28;20041;-82
2023/06/10 07:50:05;;;;;;;9.83;5.30;;;;;;;24.99;47.01;101442.06;5073501;28;20024;-84
2023/06/10 07:52:31;;;;;;;14.60;7.85;;;;;;;24.80;44.28;101445.94;5072705;28;20419;-83
2023/06/10 07:54:56;;;;;;;12.07;6.70;;;;;;;24.66;46.27;101445.94;5073566;28;20151;-83
2023/06/10 07:57:21;;;;;;;9.47;5.50;;;;;;;24.82;47.16;101448.50;5073597;28;20116;-82
2023/06/10 07:59:47;;;;;;;12.07;6.47;;;;;;;24.88;44.82;101448.09;5072151;28;20032;-83
2023/06/10 08:02:12;;;;;;;12.67;6.53;;;;;;;24.90;45.06;101453.28;5072863;28;20041;-83
2023/06/10 08:04:37;;;;;;;11.00;5.90;;;;;;;24.99;45.30;101452.69;5073249;28;20036;-83
2023/06/10 08:07:03;;;;;;;11.47;6.67;;;;;;;24.87;44.46;101446.38;5072750;28;20370;-83
2023/06/10 08:09:28;;;;;;;13.68;6.95;;;;;;;24.55;45.43;101436.06;5072694;28;20070;-83
2023/06/10 08:11:53;;;;;;;14.27;6.87;;;;;;;24.64;44.94;101440.75;5073019;28;20025;-83
2023/06/10 08:14:19;;;;;;;13.73;6.97;;;;;;;24.50;43.96;101439.00;5071896;28;20021;-84
2023/06/10 08:16:44;;;;;;;11.73;6.27;;;;;;;24.54;44.88;101444.97;5072941;28;20027;-83
2023/06/10 08:19:09;;;;;;;13.13;6.50;;;;;;;24.57;44.62;101454.53;5072923;28;20039;-84
2023/06/10 08:21:37;;;;;;;11.93;6.70;;;;;;;24.56;44.99;101443.06;5072046;28;20044;-84
2023/06/10 08:24:02;;;;;;;13.57;6.50;;;;;;;24.62;44.81;101439.16;5073107;28;20048;-82
2023/06/10 08:26:28;;;;;;;10.40;6.13;;;;;;;24.80;44.55;101442.44;5073245;28;20081;-83
2023/06/10 08:28:54;;;;;;;12.57;6.60;;;;;;;24.95;44.21;101437.91;5071946;28;20449;-82
2023/06/10 08:31:19;;;;;;;;;;;;;;;24.89;43.60;101448.91;5073325;28;20036;-82
2023/06/10 08:33:44;;;;;;;9.70;5.43;;;;;;;25.09;45.87;101440.50;5072788;28;19942;-83
2023/06/10 08:36:10;;;;;;;10.60;6.13;;;;;;;25.40;42.88;101450.81;5072503;28;20032;-82
2023/06/10 08:38:35;;;;;;;11.33;6.17;;;;;;;25.47;42.15;101446.81;5072223;28;20488;-82
2023/06/10 08:41:01;;;;;;;12.50;6.47;;;;;;;25.38;42.10;101442.13;5072242;28;20495;-82
2023/06/10 08:44:03;;;;;;;10.85;6.03;;;;;;;25.60;42.31;101446.81;5072602;28;20070;-83
2023/06/10 08:46:33;;;;;;;10.38;5.20;;;;;;;25.89;42.35;101447.41;5056890;28;20060;-82
2023/06/10 08:49:03;;;;;;;11.18;5.38;;;;;;;26.12;41.15;101444.13;5072269;28;20024;-82
2023/06/10 08:51:29;;;;;;;11.20;6.10;;;;;;;26.06;40.46;101448.03;5072738;28;20021;-82
2023/06/10 08:54:02;;;;;;;;;;;;;;;25.89;40.95;101451.91;5072911;28;20457;-83
2023/06/10 08:56:29;;;;;;;8.32;5.28;;;;;;;26.09;41.52;101450.47;5072015;28;19919;-83
2023/06/10 08:58:56;;;;;;;9.70;5.63;;;;;;;26.21;39.39;101441.63;5071759;28;20043;-83
2023/06/10 09:01:23;;;;;;;8.90;5.43;;;;;;;26.23;39.92;101441.53;5072685;28;20028;-83
2023/06/10 09:03:49;;;;;;;9.18;5.75;;;;;;;26.43;40.08;101441.88;5071001;28;20487;-82
2023/06/10 09:06:15;;;;;;;7.93;5.13;;;;;;;26.66;39.65;101438.38;5072496;28;20035;-82
2023/06/10 09:08:42;;;;;;;9.40;5.60;;;;;;;26.86;38.71;101437.84;5072221;28;20025;-82
2023/06/10 09:11:07;;;;;;;10.38;5.80;;;;;;;26.77;37.19;101439.38;5071671;28;20028;-82
2023/06/10 09:13:32;;;;;;;9.50;5.47;;;;;;;26.77;37.68;101442.88;5072362;28;20373;-82
2023/06/10 09:16:00;;;;;;;9.53;5.83;;;;;;;26.75;37.27;101441.31;5072515;28;20399;-82
2023/06/10 09:18:27;;;;;;;10.13;5.50;;;;;;;26.85;37.69;101442.34;5072540;28;20029;-82
2023/06/10 09:20:52;;;;;;;8.52;5.30;;;;;;;26.86;38.84;101429.88;5071722;28;20020;-82
2023/06/10 09:23:18;;;;;;;11.27;5.90;;;;;;;27.00;36.50;101439.50;5070292;28;20729;-82
2023/06/10 09:25:43;;;;;;;8.90;5.50;;;;;;;26.93;36.67;101431.94;5074647;28;20289;-83
2023/06/10 09:28:15;;;;;;;10.10;5.53;;;;;;;27.00;35.95;101437.66;5076536;28;20093;-82
2023/06/10 09:30:41;;;;;;;10.02;5.50;;;;;;;27.10;36.33;101438.66;5075345;28;20107;-82
2023/06/10 09:33:11;;;;;;;9.68;5.90;;;;;;;27.18;35.76;101440.75;5076550;28;20469;-82
2023/06/10 09:35:45;;;;;;;11.10;5.43;;;;;;;27.24;37.19;101434.97;5075906;28;20032;-82
2023/06/10 09:38:15;;;;;;;7.18;5.13;;;;;;;27.52;36.53;101429.34;5075474;28;20043;-82
2023/06/10 09:40:51;;;;;;;10.50;5.32;;;;;;;27.66;37.37;101436.22;5076079;28;20032;-83
2023/06/10 09:43:16;;;;;;;;;;;;;;;27.95;37.30;101433.06;5076605;28;20028;-83
2023/06/10 09:45:43;;;;;;;8.97;5.23;;;;;;;28.17;37.02;101429.53;5075011;28;19912;-82
2023/06/10 09:48:08;;;;;;;7.85;5.18;;;;;;;28.33;37.63;101432.63;5076030;28;20522;-82
2023/06/10 09:50:34;;;;;;;;;;;;;;;28.37;35.97;101438.59;5076492;28;20032;-82
2023/06/10 09:53:00;;;;;;;;;;;;;;;28.52;36.67;101433.81;5076033;28;20341;-82
2023/06/10 09:55:25;;;;;;;10.88;5.80;;;;;;;28.29;36.32;101441.88;5076087;28;19948;-82
2023/06/10 09:57:53;;;;;;;;;;;;;;;28.20;36.51;101430.13;5075617;28;20111;-82
2023/06/10 10:00:18;;;;;;;10.07;5.35;;;;;;;28.07;37.48;101417.91;5074994;28;20333;-82
2023/06/10 10:02:48;;;;;;;;;;;;;;;28.20;36.82;101427.47;5075876;28;20111;-82
2023/06/10 10:05:18;;;;;;;10.40;5.75;;;;;;;28.21;36.63;101414.97;5074965;28;20380;-81
2023/06/10 10:07:44;;;;;;;9.82;5.72;;;;;;;28.14;36.40;101417.31;5073512;28;20063;-82
2023/06/10 10:10:10;;;;;;;8.27;5.43;;;;;;;28.29;36.62;101422.34;5075813;28;20024;-82
2023/06/10 10:12:40;;;;;;;9.32;5.22;;;;;;;28.30;37.13;101414.22;5074471;28;20039;-81
2023/06/10 10:15:10;;;;;;;8.63;5.50;;;;;;;28.53;35.68;101416.81;5075434;28;20032;-83
2023/06/10 10:18:10;;;;;;;9.70;5.95;;;;;;;28.17;35.34;101413.53;5075276;28;20032;-82
2023/06/10 10:20:46;;;;;;;8.55;4.93;;;;;;;28.42;37.76;101415.03;5070880;28;20044;-82
2023/06/10 10:23:13;;;;;;;;;;;;;;;28.81;34.81;101407.38;5075476;28;20548;-82
2023/06/10 10:25:42;;;;;;;9.23;5.30;;;;;;;29.05;36.13;101408.09;5074654;28;19913;-82
2023/06/10 10:28:16;;;;;;;7.22;4.50;;;;;;;29.33;36.42;101416.41;5074441;28;20495;-82
2023/06/10 10:30:49;;;;;;;7.87;4.83;;;;;;;29.57;35.12;101414.28;5074859;28;20029;-82
2023/06/10 10:33:45;;;;;;;10.40;5.47;;;;;;;29.55;33.84;101407.38;5075018;28;20138;-84
2023/06/10 10:36:13;;;;;;;8.75;5.40;;;;;;;29.59;34.48;101406.97;5074699;28;20028;-81
2023/06/10 10:38:38;;;;;;;8.68;5.05;;;;;;;29.77;33.65;101405.50;5074829;28;20021;-81
2023/06/10 10:41:05;;;;;;;9.05;5.32;;;;;;;29.77;33.58;101402.81;5074286;28;20024;-82
2023/06/10 10:43:31;;;;;;;10.75;5.40;;;;;;;29.50;33.77;101402.44;5074896;28;20135;-81
2023/06/10 10:46:12;;;;;;;8.27;5.22;;;;;;;29.61;33.67;101401.50;5075022;28;20042;-81
2023/06/10 10:48:40;;;;;;;10.57;5.60;;;;;;;29.41;32.82;101404.09;5073959;28;20442;-81
2023/06/10 10:51:06;;;;;;;8.30;5.88;;;;;;;29.32;34.83;101404.84;5074761;28;20024;-81
2023/06/10 10:53:31;;;;;;;8.65;4.95;;;;;;;29.61;34.49;101404.19;5074664;28;20154;-82
2023/06/10 10:56:07;;;;;;;;;;;;;;;30.00;34.54;101398.13;5074678;28;20044;-82
2023/06/10 10:58:33;;;;;;;6.97;4.90;;;;;;;30.15;33.31;101402.09;5074266;28;19928;-82
2023/06/10 11:00:58;;;;;;;11.27;5.90;;;;;;;30.07;31.97;101395.72;5074601;28;20028;-83
2023/06/10 11:03:30;;;;;;;9.35;5.63;;;;;;;30.07;30.62;101388.56;5073660;28;20074;-81
2023/06/10 11:05:57;;;;;;;9.98;5.75;;;;;;;29.83;32.88;101389.75;5074455;28;20024;-82
2023/06/10 11:08:28;;;;;;;10.18;5.50;;;;;;;29.92;32.52;101390.75;5074625;28;20077;-82
2023/06/10 11:10:53;;;;;;;10.10;5.60;;;;;;;29.88;32.58;101389.31;5073578;28;20063;-82
2023/06/10 11:13:23;;;;;;;8.35;5.50;;;;;;;29.84;32.92;101385.22;5074408;28;20052;-83
2023/06/10 11:15:50;;;;;;;7.32;5.38;;;;;;;30.03;31.61;101382.66;5073028;28;20063;-83
2023/06/10 11:18:38;;;;;;;8.75;5.18;;;;;;;30.06;31.84;101380.69;5072122;28;20552;-89
2023/06/10 11:21:06;;;;;;;7.03;5.10;;;;;;;30.27;32.16;101385.91;5073951;28;20035;-83